sensor_id;sensor_type;location;lat;lon;timestamp;temperature;humidity
15959;DHT22;8078;47.822;9.402;2024-02-04T00:01:47;3.30;99.90
15959;DHT22;8078;47.822;9.402;2024-02-04T00:04:13;3.30;99.90
15959;DHT22;8078;47.822;9.402;2024-02-04T00:06:39;3.30;99.90
15959;DHT22;8078;47.822;9.402;2024-02-04T00:09:04;3.30;99.90
15959;DHT22;8078;47.822;9.402;2024-02-04T00:11:30;3.30;99.90
15959;DHT22;8078;47.822;9.402;2024-02-04T00:13:55;3.30;99.90
15959;DHT22;8078;47.822;9.402;2024-02-04T00:16:21;3.30;99.90
15959;DHT22;8078;47.822;9.402;2024-02-04T00:18:47;3.30;99.90
15959;DHT22;8078;47.822;9.402;2024-02-04T00:21:13;3.30;99.90
15959;DHT22;8078;47.822;9.402;2024-02-04T00:23:39;3.30;99.90
15959;DHT22;8078;47.822;9.402;2024-02-04T00:26:05;3.30;99.90
15959;DHT22;8078;47.822;9.402;2024-02-04T00:28:30;3.30;99.90
15959;DHT22;8078;47.822;9.402;2024-02-04T00:30:56;3.30;99.90
15959;DHT22;8078;47.822;9.402;2024-02-04T00:33:24;3.30;99.90
15959;DHT22;8078;47.822;9.402;2024-02-04T00:35:50;3.40;99.90
15959;DHT22;8078;47.822;9.402;2024-02-04T00:38:16;3.30;99.90
15959;DHT22;8078;47.822;9.402;2024-02-04T00:40:42;3.40;99.90
15959;DHT22;8078;47.822;9.402;2024-02-04T00:43:10;3.40;99.90
15959;DHT22;8078;47.822;9.402;2024-02-04T00:45:36;3.40;99.90
15959;DHT22;8078;47.822;9.402;2024-02-04T00:48:02;3.40;99.90
15959;DHT22;8078;47.822;9.402;2024-02-04T00:50:27;3.30;99.90
15959;DHT22;8078;47.822;9.402;2024-02-04T00:52:53;3.30;99.90
15959;DHT22;8078;47.822;9.402;2024-02-04T00:55:20;3.20;99.90
15959;DHT22;8078;47.822;9.402;2024-02-04T00:57:45;3.20;99.90
15959;DHT22;8078;47.822;9.402;2024-02-04T01:00:36;3.20;99.90
15959;DHT22;8078;47.822;9.402;2024-02-04T01:03:01;3.30;99.90
15959;DHT22;8078;47.822;9.402;2024-02-04T01:05:27;3.30;99.90
15959;DHT22;8078;47.822;9.402;2024-02-04T01:07:53;3.20;99.90
15959;DHT22;8078;47.822;9.402;2024-02-04T01:10:19;3.10;99.90
15959;DHT22;8078;47.822;9.402;2024-02-04T01:12:44;3.00;99.90
15959;DHT22;8078;47.822;9.402;2024-02-04T01:15:10;2.90;99.90
15959;DHT22;8078;47.822;9.402;2024-02-04T01:17:36;2.90;99.90
15959;DHT22;8078;47.822;9.402;2024-02-04T01:20:02;2.80;99.90
15959;DHT22;8078;47.822;9.402;2024-02-04T01:22:28;2.80;99.90
15959;DHT22;8078;47.822;9.402;2024-02-04T01:24:54;2.60;99.90
15959;DHT22;8078;47.822;9.402;2024-02-04T01:27:20;2.60;99.90
15959;DHT22;8078;47.822;9.402;2024-02-04T01:29:46;2.50;99.90
15959;DHT22;8078;47.822;9.402;2024-02-04T01:32:11;2.40;99.90
15959;DHT22;8078;47.822;9.402;2024-02-04T01:34:37;2.40;99.90
15959;DHT22;8078;47.822;9.402;2024-02-04T01:37:03;2.40;99.90
15959;DHT22;8078;47.822;9.402;2024-02-04T01:39:29;2.30;99.90
15959;DHT22;8078;47.822;9.402;2024-02-04T01:41:55;2.30;99.90
15959;DHT22;8078;47.822;9.402;2024-02-04T01:44:20;2.30;99.90
15959;DHT22;8078;47.822;9.402;2024-02-04T01:46:48;2.30;99.90
15959;DHT22;8078;47.822;9.402;2024-02-04T01:49:13;2.30;99.90
15959;DHT22;8078;47.822;9.402;2024-02-04T01:51:39;2.30;99.90
15959;DHT22;8078;47.822;9.402;2024-02-04T01:54:07;2.30;99.90
15959;DHT22;8078;47.822;9.402;2024-02-04T01:56:33;2.30;99.90
15959;DHT22;8078;47.822;9.402;2024-02-04T01:58:59;2.20;99.90
15959;DHT22;8078;47.822;9.402;2024-02-04T02:01:26;2.20;99.90
15959;DHT22;8078;47.822;9.402;2024-02-04T02:03:52;2.20;99.90
15959;DHT22;8078;47.822;9.402;2024-02-04T02:06:18;2.10;99.90
15959;DHT22;8078;47.822;9.402;2024-02-04T02:08:45;2.10;99.90
15959;DHT22;8078;47.822;9.402;2024-02-04T02:11:19;2.10;99.90
15959;DHT22;8078;47.822;9.402;2024-02-04T02:13:55;2.10;99.90
15959;DHT22;8078;47.822;9.402;2024-02-04T02:16:23;2.10;99.90
15959;DHT22;8078;47.822;9.402;2024-02-04T02:18:53;2.00;99.90
15959;DHT22;8078;47.822;9.402;2024-02-04T02:21:55;2.00;99.90
15959;DHT22;8078;47.822;9.402;2024-02-04T02:26:51;2.00;99.90
15959;DHT22;8078;47.822;9.402;2024-02-04T02:29:17;2.00;99.90
15959;DHT22;8078;47.822;9.402;2024-02-04T02:31:43;2.00;99.90
15959;DHT22;8078;47.822;9.402;2024-02-04T02:34:09;2.00;99.90
15959;DHT22;8078;47.822;9.402;2024-02-04T02:36:45;2.00;99.90
15959;DHT22;8078;47.822;9.402;2024-02-04T02:39:21;2.00;99.90
15959;DHT22;8078;47.822;9.402;2024-02-04T02:41:50;2.00;99.90
15959;DHT22;8078;47.822;9.402;2024-02-04T02:44:19;2.00;99.90
15959;DHT22;8078;47.822;9.402;2024-02-04T02:46:46;2.00;99.90
15959;DHT22;8078;47.822;9.402;2024-02-04T02:49:13;2.00;99.90
15959;DHT22;8078;47.822;9.402;2024-02-04T02:51:39;1.90;99.90
15959;DHT22;8078;47.822;9.402;2024-02-04T02:54:05;2.00;99.90
15959;DHT22;8078;47.822;9.402;2024-02-04T02:56:33;2.00;99.90
15959;DHT22;8078;47.822;9.402;2024-02-04T02:58:59;2.00;99.90
15959;DHT22;8078;47.822;9.402;2024-02-04T03:01:25;1.90;99.90
15959;DHT22;8078;47.822;9.402;2024-02-04T03:03:51;2.00;99.90
15959;DHT22;8078;47.822;9.402;2024-02-04T03:06:16;2.00;99.90
15959;DHT22;8078;47.822;9.402;2024-02-04T03:08:42;2.00;99.90
15959;DHT22;8078;47.822;9.402;2024-02-04T03:11:08;2.00;99.90
15959;DHT22;8078;47.822;9.402;2024-02-04T03:13:34;2.00;99.90
15959;DHT22;8078;47.822;9.402;2024-02-04T03:16:00;2.00;99.90
15959;DHT22;8078;47.822;9.402;2024-02-04T03:18:25;2.00;99.90
15959;DHT22;8078;47.822;9.402;2024-02-04T03:20:51;2.00;99.90
15959;DHT22;8078;47.822;9.402;2024-02-04T03:23:17;2.00;99.90
15959;DHT22;8078;47.822;9.402;2024-02-04T03:25:42;2.10;99.90
15959;DHT22;8078;47.822;9.402;2024-02-04T03:28:08;2.10;99.90
15959;DHT22;8078;47.822;9.402;2024-02-04T03:30:34;2.10;99.90
15959;DHT22;8078;47.822;9.402;2024-02-04T03:32:59;2.10;99.90
15959;DHT22;8078;47.822;9.402;2024-02-04T03:35:25;2.20;99.90
15959;DHT22;8078;47.822;9.402;2024-02-04T03:37:51;2.20;99.90
15959;DHT22;8078;47.822;9.402;2024-02-04T03:40:17;2.20;99.90
15959;DHT22;8078;47.822;9.402;2024-02-04T03:42:44;2.20;99.90
15959;DHT22;8078;47.822;9.402;2024-02-04T03:45:10;2.10;99.90
15959;DHT22;8078;47.822;9.402;2024-02-04T03:47:36;2.10;99.90
15959;DHT22;8078;47.822;9.402;2024-02-04T03:50:02;2.10;99.90
15959;DHT22;8078;47.822;9.402;2024-02-04T03:52:28;2.00;99.90
15959;DHT22;8078;47.822;9.402;2024-02-04T03:54:53;2.00;99.90
15959;DHT22;8078;47.822;9.402;2024-02-04T03:57:19;2.10;99.90
15959;DHT22;8078;47.822;9.402;2024-02-04T03:59:45;2.10;99.90
15959;DHT22;8078;47.822;9.402;2024-02-04T04:02:14;2.10;99.90
15959;DHT22;8078;47.822;9.402;2024-02-04T04:04:40;2.10;99.90
15959;DHT22;8078;47.822;9.402;2024-02-04T04:07:12;2.10;99.90
15959;DHT22;8078;47.822;9.402;2024-02-04T04:09:38;2.10;99.90
15959;DHT22;8078;47.822;9.402;2024-02-04T04:12:04;2.10;99.90
15959;DHT22;8078;47.822;9.402;2024-02-04T04:14:30;2.10;99.90
15959;DHT22;8078;47.822;9.402;2024-02-04T04:16:55;2.10;99.90
15959;DHT22;8078;47.822;9.402;2024-02-04T04:19:21;2.10;99.90
15959;DHT22;8078;47.822;9.402;2024-02-04T04:21:46;2.10;99.90
15959;DHT22;8078;47.822;9.402;2024-02-04T04:24:12;2.10;99.90
15959;DHT22;8078;47.822;9.402;2024-02-04T04:26:38;2.10;99.90
15959;DHT22;8078;47.822;9.402;2024-02-04T04:29:03;2.10;99.90
15959;DHT22;8078;47.822;9.402;2024-02-04T04:31:29;2.10;99.90
15959;DHT22;8078;47.822;9.402;2024-02-04T04:33:54;2.10;99.90
15959;DHT22;8078;47.822;9.402;2024-02-04T04:36:20;2.10;99.90
15959;DHT22;8078;47.822;9.402;2024-02-04T04:38:46;2.10;99.90
15959;DHT22;8078;47.822;9.402;2024-02-04T04:41:15;2.10;99.90
15959;DHT22;8078;47.822;9.402;2024-02-04T04:43:40;2.10;99.90
15959;DHT22;8078;47.822;9.402;2024-02-04T04:46:06;2.10;99.90
15959;DHT22;8078;47.822;9.402;2024-02-04T04:48:32;2.10;99.90
15959;DHT22;8078;47.822;9.402;2024-02-04T04:50:57;2.10;99.90
15959;DHT22;8078;47.822;9.402;2024-02-04T04:53:23;2.10;99.90
15959;DHT22;8078;47.822;9.402;2024-02-04T04:55:48;2.10;99.90
15959;DHT22;8078;47.822;9.402;2024-02-04T04:58:14;2.10;99.90
15959;DHT22;8078;47.822;9.402;2024-02-04T05:00:39;2.10;99.90
15959;DHT22;8078;47.822;9.402;2024-02-04T05:03:05;2.10;99.90
15959;DHT22;8078;47.822;9.402;2024-02-04T05:05:31;2.10;99.90
15959;DHT22;8078;47.822;9.402;2024-02-04T05:07:56;2.10;99.90
15959;DHT22;8078;47.822;9.402;2024-02-04T05:10:22;2.10;99.90
15959;DHT22;8078;47.822;9.402;2024-02-04T05:12:47;2.10;99.90
15959;DHT22;8078;47.822;9.402;2024-02-04T05:15:13;2.10;99.90
15959;DHT22;8078;47.822;9.402;2024-02-04T05:17:39;2.10;99.90
15959;DHT22;8078;47.822;9.402;2024-02-04T05:20:05;2.10;99.90
15959;DHT22;8078;47.822;9.402;2024-02-04T05:22:32;2.10;99.90
15959;DHT22;8078;47.822;9.402;2024-02-04T05:24:57;2.10;99.90
15959;DHT22;8078;47.822;9.402;2024-02-04T05:30:46;2.10;99.90
15959;DHT22;8078;47.822;9.402;2024-02-04T05:33:14;2.10;99.90
15959;DHT22;8078;47.822;9.402;2024-02-04T05:35:41;2.10;99.90
15959;DHT22;8078;47.822;9.402;2024-02-04T05:38:08;2.20;99.90
15959;DHT22;8078;47.822;9.402;2024-02-04T05:40:33;2.10;99.90
15959;DHT22;8078;47.822;9.402;2024-02-04T05:42:59;2.10;99.90
15959;DHT22;8078;47.822;9.402;2024-02-04T05:45:25;2.10;99.90
15959;DHT22;8078;47.822;9.402;2024-02-04T05:47:50;2.10;99.90
15959;DHT22;8078;47.822;9.402;2024-02-04T05:50:16;2.10;99.90
15959;DHT22;8078;47.822;9.402;2024-02-04T05:52:42;2.20;99.90
15959;DHT22;8078;47.822;9.402;2024-02-04T05:55:09;2.10;99.90
15959;DHT22;8078;47.822;9.402;2024-02-04T05:57:35;2.10;99.90
15959;DHT22;8078;47.822;9.402;2024-02-04T06:00:01;2.10;99.90
15959;DHT22;8078;47.822;9.402;2024-02-04T06:02:27;2.10;99.90
15959;DHT22;8078;47.822;9.402;2024-02-04T06:04:52;2.10;99.90
15959;DHT22;8078;47.822;9.402;2024-02-04T06:07:18;2.10;99.90
15959;DHT22;8078;47.822;9.402;2024-02-04T06:09:43;2.10;99.90
15959;DHT22;8078;47.822;9.402;2024-02-04T06:12:09;2.10;99.90
15959;DHT22;8078;47.822;9.402;2024-02-04T06:14:34;2.10;99.90
15959;DHT22;8078;47.822;9.402;2024-02-04T06:17:01;2.00;99.90
15959;DHT22;8078;47.822;9.402;2024-02-04T06:19:27;2.00;99.90
15959;DHT22;8078;47.822;9.402;2024-02-04T06:21:53;2.00;99.90
15959;DHT22;8078;47.822;9.402;2024-02-04T06:24:18;2.00;99.90
15959;DHT22;8078;47.822;9.402;2024-02-04T06:26:45;2.00;99.90
15959;DHT22;8078;47.822;9.402;2024-02-04T06:29:11;2.00;99.90
15959;DHT22;8078;47.822;9.402;2024-02-04T06:31:37;2.00;99.90
15959;DHT22;8078;47.822;9.402;2024-02-04T06:34:02;2.00;99.90
15959;DHT22;8078;47.822;9.402;2024-02-04T06:36:28;2.00;99.90
15959;DHT22;8078;47.822;9.402;2024-02-04T06:38:54;2.00;99.90
15959;DHT22;8078;47.822;9.402;2024-02-04T06:41:20;2.00;99.90
15959;DHT22;8078;47.822;9.402;2024-02-04T06:43:45;2.00;99.90
15959;DHT22;8078;47.822;9.402;2024-02-04T06:46:11;2.00;99.90
15959;DHT22;8078;47.822;9.402;2024-02-04T06:48:37;2.00;99.90
15959;DHT22;8078;47.822;9.402;2024-02-04T06:51:02;2.00;99.90
15959;DHT22;8078;47.822;9.402;2024-02-04T06:53:28;2.00;99.90
15959;DHT22;8078;47.822;9.402;2024-02-04T06:55:54;2.10;99.90
15959;DHT22;8078;47.822;9.402;2024-02-04T06:58:19;2.00;99.90
15959;DHT22;8078;47.822;9.402;2024-02-04T07:00:46;2.00;99.90
15959;DHT22;8078;47.822;9.402;2024-02-04T07:03:15;2.10;99.90
15959;DHT22;8078;47.822;9.402;2024-02-04T07:05:40;2.10;99.90
15959;DHT22;8078;47.822;9.402;2024-02-04T07:08:07;2.10;99.90
15959;DHT22;8078;47.822;9.402;2024-02-04T07:10:33;2.10;99.90
15959;DHT22;8078;47.822;9.402;2024-02-04T07:12:59;2.10;99.90
15959;DHT22;8078;47.822;9.402;2024-02-04T07:15:24;2.10;99.90
15959;DHT22;8078;47.822;9.402;2024-02-04T07:17:50;2.10;99.90
15959;DHT22;8078;47.822;9.402;2024-02-04T07:20:15;2.10;99.90
15959;DHT22;8078;47.822;9.402;2024-02-04T07:22:41;2.10;99.90
15959;DHT22;8078;47.822;9.402;2024-02-04T07:25:07;2.20;99.90
15959;DHT22;8078;47.822;9.402;2024-02-04T07:27:33;2.20;99.90
15959;DHT22;8078;47.822;9.402;2024-02-04T07:29:59;2.20;99.90
15959;DHT22;8078;47.822;9.402;2024-02-04T07:32:25;2.20;99.90
15959;DHT22;8078;47.822;9.402;2024-02-04T07:34:50;2.20;99.90
15959;DHT22;8078;47.822;9.402;2024-02-04T07:37:16;2.20;99.90
15959;DHT22;8078;47.822;9.402;2024-02-04T07:39:43;2.20;99.90
15959;DHT22;8078;47.822;9.402;2024-02-04T07:42:08;2.30;99.90
15959;DHT22;8078;47.822;9.402;2024-02-04T07:44:34;2.20;99.90
15959;DHT22;8078;47.822;9.402;2024-02-04T07:46:59;2.20;99.90
15959;DHT22;8078;47.822;9.402;2024-02-04T07:49:25;2.20;99.90
15959;DHT22;8078;47.822;9.402;2024-02-04T07:51:51;2.20;99.90
15959;DHT22;8078;47.822;9.402;2024-02-04T07:54:17;2.30;99.90
15959;DHT22;8078;47.822;9.402;2024-02-04T07:56:42;2.30;99.90
15959;DHT22;8078;47.822;9.402;2024-02-04T07:59:08;2.30;99.90
15959;DHT22;8078;47.822;9.402;2024-02-04T08:01:34;2.30;99.90
15959;DHT22;8078;47.822;9.402;2024-02-04T08:03:59;2.30;99.90
15959;DHT22;8078;47.822;9.402;2024-02-04T08:06:25;2.30;99.90
15959;DHT22;8078;47.822;9.402;2024-02-04T08:08:51;2.30;99.90
15959;DHT22;8078;47.822;9.402;2024-02-04T08:11:20;2.20;99.90
15959;DHT22;8078;47.822;9.402;2024-02-04T08:13:46;2.30;99.90
15959;DHT22;8078;47.822;9.402;2024-02-04T08:16:12;2.30;99.90
15959;DHT22;8078;47.822;9.402;2024-02-04T08:18:38;2.30;99.90
15959;DHT22;8078;47.822;9.402;2024-02-04T08:21:04;2.30;99.90
15959;DHT22;8078;47.822;9.402;2024-02-04T08:23:29;2.30;99.90
15959;DHT22;8078;47.822;9.402;2024-02-04T08:25:55;2.30;99.90
15959;DHT22;8078;47.822;9.402;2024-02-04T08:28:22;2.30;99.90
15959;DHT22;8078;47.822;9.402;2024-02-04T08:30:49;2.20;99.90
15959;DHT22;8078;47.822;9.402;2024-02-04T08:33:14;2.30;99.90
15959;DHT22;8078;47.822;9.402;2024-02-04T08:35:40;2.30;99.90
15959;DHT22;8078;47.822;9.402;2024-02-04T08:38:06;2.30;99.90
15959;DHT22;8078;47.822;9.402;2024-02-04T08:40:32;2.40;99.90
15959;DHT22;8078;47.822;9.402;2024-02-04T08:42:57;2.40;99.90
15959;DHT22;8078;47.822;9.402;2024-02-04T08:45:23;2.40;99.90
15959;DHT22;8078;47.822;9.402;2024-02-04T08:47:48;2.40;99.90
15959;DHT22;8078;47.822;9.402;2024-02-04T08:50:14;2.50;99.90
15959;DHT22;8078;47.822;9.402;2024-02-04T08:52:41;2.50;99.90
15959;DHT22;8078;47.822;9.402;2024-02-04T08:55:06;2.50;99.90
15959;DHT22;8078;47.822;9.402;2024-02-04T08:57:32;2.50;99.90
15959;DHT22;8078;47.822;9.402;2024-02-04T08:59:58;2.50;99.90
15959;DHT22;8078;47.822;9.402;2024-02-04T09:02:23;2.50;99.90
15959;DHT22;8078;47.822;9.402;2024-02-04T09:04:49;2.60;99.90
15959;DHT22;8078;47.822;9.402;2024-02-04T09:07:15;2.60;99.90
15959;DHT22;8078;47.822;9.402;2024-02-04T09:09:40;2.60;99.90
15959;DHT22;8078;47.822;9.402;2024-02-04T09:12:09;2.60;99.90
15959;DHT22;8078;47.822;9.402;2024-02-04T09:14:34;2.60;99.90
15959;DHT22;8078;47.822;9.402;2024-02-04T09:17:03;2.50;99.90
15959;DHT22;8078;47.822;9.402;2024-02-04T09:19:29;2.50;99.90
15959;DHT22;8078;47.822;9.402;2024-02-04T09:21:56;2.50;99.90
15959;DHT22;8078;47.822;9.402;2024-02-04T09:24:22;2.50;99.90
15959;DHT22;8078;47.822;9.402;2024-02-04T09:26:47;2.50;99.90
15959;DHT22;8078;47.822;9.402;2024-02-04T09:29:13;2.50;99.90
15959;DHT22;8078;47.822;9.402;2024-02-04T09:31:38;2.60;99.90
15959;DHT22;8078;47.822;9.402;2024-02-04T09:34:04;2.70;99.90
15959;DHT22;8078;47.822;9.402;2024-02-04T09:36:30;2.80;99.90
15959;DHT22;8078;47.822;9.402;2024-02-04T09:38:56;2.70;99.90
15959;DHT22;8078;47.822;9.402;2024-02-04T09:41:22;2.80;99.90
15959;DHT22;8078;47.822;9.402;2024-02-04T09:43:50;2.80;99.90
15959;DHT22;8078;47.822;9.402;2024-02-04T09:46:17;2.70;99.90
15959;DHT22;8078;47.822;9.402;2024-02-04T09:48:44;2.70;99.90
15959;DHT22;8078;47.822;9.402;2024-02-04T09:51:10;2.80;99.90
15959;DHT22;8078;47.822;9.402;2024-02-04T09:53:43;2.70;99.90
15959;DHT22;8078;47.822;9.402;2024-02-04T09:56:10;2.70;99.90
15959;DHT22;8078;47.822;9.402;2024-02-04T09:58:37;2.70;99.90
15959;DHT22;8078;47.822;9.402;2024-02-04T10:01:04;3.00;99.90
15959;DHT22;8078;47.822;9.402;2024-02-04T10:03:30;2.90;99.90
15959;DHT22;8078;47.822;9.402;2024-02-04T10:05:56;2.90;99.90
15959;DHT22;8078;47.822;9.402;2024-02-04T10:08:22;3.10;99.90
15959;DHT22;8078;47.822;9.402;2024-02-04T10:10:48;3.00;99.90
15959;DHT22;8078;47.822;9.402;2024-02-04T10:13:14;2.90;99.90
15959;DHT22;8078;47.822;9.402;2024-02-04T10:15:39;2.90;99.90
15959;DHT22;8078;47.822;9.402;2024-02-04T10:18:08;2.90;99.90
15959;DHT22;8078;47.822;9.402;2024-02-04T10:20:34;2.90;99.90
15959;DHT22;8078;47.822;9.402;2024-02-04T10:23:00;2.90;99.90
15959;DHT22;8078;47.822;9.402;2024-02-04T10:25:26;2.90;99.90
15959;DHT22;8078;47.822;9.402;2024-02-04T10:27:53;2.90;99.90
15959;DHT22;8078;47.822;9.402;2024-02-04T10:30:19;2.90;99.90
15959;DHT22;8078;47.822;9.402;2024-02-04T10:32:52;2.90;99.90
15959;DHT22;8078;47.822;9.402;2024-02-04T10:35:20;3.00;99.90
15959;DHT22;8078;47.822;9.402;2024-02-04T10:37:49;2.90;99.90
15959;DHT22;8078;47.822;9.402;2024-02-04T10:40:15;3.00;99.90
15959;DHT22;8078;47.822;9.402;2024-02-04T10:42:42;3.00;99.90
15959;DHT22;8078;47.822;9.402;2024-02-04T10:45:09;2.90;99.90
15959;DHT22;8078;47.822;9.402;2024-02-04T10:47:40;2.90;99.90
15959;DHT22;8078;47.822;9.402;2024-02-04T10:50:08;2.90;99.90
15959;DHT22;8078;47.822;9.402;2024-02-04T10:52:38;3.00;99.90
15959;DHT22;8078;47.822;9.402;2024-02-04T10:55:09;3.10;99.90
15959;DHT22;8078;47.822;9.402;2024-02-04T10:57:37;3.20;99.90
15959;DHT22;8078;47.822;9.402;2024-02-04T11:00:04;3.10;99.90
15959;DHT22;8078;47.822;9.402;2024-02-04T11:02:35;3.30;99.90
15959;DHT22;8078;47.822;9.402;2024-02-04T11:05:05;3.40;99.90
15959;DHT22;8078;47.822;9.402;2024-02-04T11:07:32;3.30;99.90
15959;DHT22;8078;47.822;9.402;2024-02-04T11:10:00;3.40;99.90
15959;DHT22;8078;47.822;9.402;2024-02-04T11:12:26;3.30;99.90
15959;DHT22;8078;47.822;9.402;2024-02-04T11:14:54;3.60;99.90
15959;DHT22;8078;47.822;9.402;2024-02-04T11:25:46;3.50;99.90
15959;DHT22;8078;47.822;9.402;2024-02-04T11:28:20;3.90;99.90
15959;DHT22;8078;47.822;9.402;2024-02-04T11:30:47;4.10;99.90
15959;DHT22;8078;47.822;9.402;2024-02-04T11:33:21;4.10;99.90
15959;DHT22;8078;47.822;9.402;2024-02-04T11:36:03;4.10;99.90
15959;DHT22;8078;47.822;9.402;2024-02-04T11:38:39;4.20;99.90
15959;DHT22;8078;47.822;9.402;2024-02-04T11:41:06;4.40;99.90
15959;DHT22;8078;47.822;9.402;2024-02-04T11:43:35;4.20;99.90
15959;DHT22;8078;47.822;9.402;2024-02-04T11:46:04;4.30;99.90
15959;DHT22;8078;47.822;9.402;2024-02-04T11:48:32;4.20;99.90
15959;DHT22;8078;47.822;9.402;2024-02-04T11:51:00;4.50;99.90
15959;DHT22;8078;47.822;9.402;2024-02-04T11:53:26;4.30;99.90
15959;DHT22;8078;47.822;9.402;2024-02-04T11:56:00;4.50;99.90
15959;DHT22;8078;47.822;9.402;2024-02-04T11:58:27;4.60;99.90
15959;DHT22;8078;47.822;9.402;2024-02-04T12:00:54;4.50;99.90
15959;DHT22;8078;47.822;9.402;2024-02-04T12:03:33;4.90;99.90
15959;DHT22;8078;47.822;9.402;2024-02-04T12:06:03;4.90;99.90
15959;DHT22;8078;47.822;9.402;2024-02-04T12:08:32;5.20;99.90
15959;DHT22;8078;47.822;9.402;2024-02-04T12:10:59;5.10;99.90
15959;DHT22;8078;47.822;9.402;2024-02-04T12:13:28;4.90;99.90
15959;DHT22;8078;47.822;9.402;2024-02-04T12:15:55;4.80;99.90
15959;DHT22;8078;47.822;9.402;2024-02-04T12:18:21;4.90;99.90
15959;DHT22;8078;47.822;9.402;2024-02-04T12:20:50;5.00;99.90
15959;DHT22;8078;47.822;9.402;2024-02-04T12:23:18;5.10;99.90
15959;DHT22;8078;47.822;9.402;2024-02-04T12:25:45;5.80;99.90
15959;DHT22;8078;47.822;9.402;2024-02-04T12:28:15;5.80;99.90
15959;DHT22;8078;47.822;9.402;2024-02-04T12:30:41;5.70;99.90
15959;DHT22;8078;47.822;9.402;2024-02-04T12:33:18;5.70;99.90
15959;DHT22;8078;47.822;9.402;2024-02-04T12:35:43;5.90;99.90
15959;DHT22;8078;47.822;9.402;2024-02-04T12:38:16;6.20;99.90
15959;DHT22;8078;47.822;9.402;2024-02-04T12:40:43;5.90;99.90
15959;DHT22;8078;47.822;9.402;2024-02-04T12:43:11;5.90;99.90
15959;DHT22;8078;47.822;9.402;2024-02-04T12:45:40;6.10;99.90
15959;DHT22;8078;47.822;9.402;2024-02-04T12:48:07;6.20;99.90
15959;DHT22;8078;47.822;9.402;2024-02-04T12:50:37;6.50;99.90
15959;DHT22;8078;47.822;9.402;2024-02-04T12:53:08;6.50;99.90
15959;DHT22;8078;47.822;9.402;2024-02-04T12:55:37;6.40;99.90
15959;DHT22;8078;47.822;9.402;2024-02-04T12:58:12;6.70;99.90
15959;DHT22;8078;47.822;9.402;2024-02-04T13:00:42;6.40;99.90
15959;DHT22;8078;47.822;9.402;2024-02-04T13:03:15;6.60;99.90
15959;DHT22;8078;47.822;9.402;2024-02-04T13:05:41;6.70;99.90
15959;DHT22;8078;47.822;9.402;2024-02-04T13:08:08;6.70;99.90
15959;DHT22;8078;47.822;9.402;2024-02-04T13:10:36;6.90;99.90
15959;DHT22;8078;47.822;9.402;2024-02-04T13:13:11;7.00;99.90
15959;DHT22;8078;47.822;9.402;2024-02-04T13:15:40;7.20;99.90
15959;DHT22;8078;47.822;9.402;2024-02-04T13:18:12;7.00;99.90
15959;DHT22;8078;47.822;9.402;2024-02-04T13:20:41;7.20;99.90
15959;DHT22;8078;47.822;9.402;2024-02-04T13:23:08;7.00;99.90
15959;DHT22;8078;47.822;9.402;2024-02-04T13:25:34;7.10;99.90
15959;DHT22;8078;47.822;9.402;2024-02-04T13:28:00;7.10;99.90
15959;DHT22;8078;47.822;9.402;2024-02-04T13:30:27;6.80;99.90
15959;DHT22;8078;47.822;9.402;2024-02-04T13:32:53;6.90;99.90
15959;DHT22;8078;47.822;9.402;2024-02-04T13:35:19;7.10;99.90
15959;DHT22;8078;47.822;9.402;2024-02-04T13:37:48;7.20;99.90
15959;DHT22;8078;47.822;9.402;2024-02-04T13:40:18;7.00;99.90
15959;DHT22;8078;47.822;9.402;2024-02-04T13:42:45;6.70;99.90
15959;DHT22;8078;47.822;9.402;2024-02-04T13:45:11;6.60;99.90
15959;DHT22;8078;47.822;9.402;2024-02-04T13:47:40;6.50;99.90
15959;DHT22;8078;47.822;9.402;2024-02-04T13:50:07;6.50;99.90
15959;DHT22;8078;47.822;9.402;2024-02-04T13:52:36;6.70;99.90
15959;DHT22;8078;47.822;9.402;2024-02-04T13:55:03;6.80;99.90
15959;DHT22;8078;47.822;9.402;2024-02-04T13:57:36;6.80;99.90
15959;DHT22;8078;47.822;9.402;2024-02-04T14:00:03;6.80;99.90
15959;DHT22;8078;47.822;9.402;2024-02-04T14:02:33;6.70;99.90
15959;DHT22;8078;47.822;9.402;2024-02-04T14:04:59;6.70;99.90
15959;DHT22;8078;47.822;9.402;2024-02-04T14:07:25;6.60;99.90
15959;DHT22;8078;47.822;9.402;2024-02-04T14:09:51;6.50;99.90
15959;DHT22;8078;47.822;9.402;2024-02-04T14:12:17;6.50;99.90
15959;DHT22;8078;47.822;9.402;2024-02-04T14:14:43;6.60;99.90
15959;DHT22;8078;47.822;9.402;2024-02-04T14:17:09;6.60;99.90
15959;DHT22;8078;47.822;9.402;2024-02-04T14:19:35;6.50;99.90
15959;DHT22;8078;47.822;9.402;2024-02-04T14:22:01;6.60;99.90
15959;DHT22;8078;47.822;9.402;2024-02-04T14:24:27;6.50;99.90
15959;DHT22;8078;47.822;9.402;2024-02-04T14:26:59;6.50;99.90
15959;DHT22;8078;47.822;9.402;2024-02-04T14:29:26;6.50;99.90
15959;DHT22;8078;47.822;9.402;2024-02-04T14:31:52;6.50;99.90
15959;DHT22;8078;47.822;9.402;2024-02-04T14:34:17;6.50;99.90
15959;DHT22;8078;47.822;9.402;2024-02-04T14:36:43;6.60;99.90
15959;DHT22;8078;47.822;9.402;2024-02-04T14:39:08;6.50;99.90
15959;DHT22;8078;47.822;9.402;2024-02-04T14:41:35;6.50;99.90
15959;DHT22;8078;47.822;9.402;2024-02-04T14:44:01;6.50;99.90
15959;DHT22;8078;47.822;9.402;2024-02-04T14:46:27;6.60;99.90
15959;DHT22;8078;47.822;9.402;2024-02-04T14:48:52;6.60;99.90
15959;DHT22;8078;47.822;9.402;2024-02-04T14:51:18;6.50;99.90
15959;DHT22;8078;47.822;9.402;2024-02-04T14:53:44;6.50;99.90
15959;DHT22;8078;47.822;9.402;2024-02-04T14:56:10;6.50;99.90
15959;DHT22;8078;47.822;9.402;2024-02-04T14:58:36;6.60;99.90
15959;DHT22;8078;47.822;9.402;2024-02-04T15:01:02;6.60;99.90
15959;DHT22;8078;47.822;9.402;2024-02-04T15:03:28;6.60;99.90
15959;DHT22;8078;47.822;9.402;2024-02-04T15:05:54;6.60;99.90
15959;DHT22;8078;47.822;9.402;2024-02-04T15:08:19;6.50;99.90
15959;DHT22;8078;47.822;9.402;2024-02-04T15:10:46;6.50;99.90
15959;DHT22;8078;47.822;9.402;2024-02-04T15:13:15;6.40;99.90
15959;DHT22;8078;47.822;9.402;2024-02-04T15:15:40;6.40;99.90
15959;DHT22;8078;47.822;9.402;2024-02-04T15:18:06;6.40;99.90
15959;DHT22;8078;47.822;9.402;2024-02-04T15:20:32;6.40;99.90
15959;DHT22;8078;47.822;9.402;2024-02-04T15:22:59;6.40;99.90
15959;DHT22;8078;47.822;9.402;2024-02-04T15:25:26;6.30;99.90
15959;DHT22;8078;47.822;9.402;2024-02-04T15:27:52;6.40;99.90
15959;DHT22;8078;47.822;9.402;2024-02-04T15:30:20;6.40;99.90
15959;DHT22;8078;47.822;9.402;2024-02-04T15:32:46;6.40;99.90
15959;DHT22;8078;47.822;9.402;2024-02-04T15:35:12;6.40;99.90
15959;DHT22;8078;47.822;9.402;2024-02-04T15:37:37;6.40;99.90
15959;DHT22;8078;47.822;9.402;2024-02-04T15:40:03;6.40;99.90
15959;DHT22;8078;47.822;9.402;2024-02-04T15:42:30;6.40;99.90
15959;DHT22;8078;47.822;9.402;2024-02-04T15:44:55;6.40;99.90
15959;DHT22;8078;47.822;9.402;2024-02-04T15:47:23;6.40;99.90
15959;DHT22;8078;47.822;9.402;2024-02-04T15:49:49;6.40;99.90
15959;DHT22;8078;47.822;9.402;2024-02-04T15:52:15;6.40;99.90
15959;DHT22;8078;47.822;9.402;2024-02-04T15:54:41;6.40;99.90
15959;DHT22;8078;47.822;9.402;2024-02-04T15:57:15;6.40;99.90
15959;DHT22;8078;47.822;9.402;2024-02-04T15:59:55;6.40;99.90
15959;DHT22;8078;47.822;9.402;2024-02-04T16:02:22;6.40;99.90
15959;DHT22;8078;47.822;9.402;2024-02-04T16:04:48;6.40;99.90
15959;DHT22;8078;47.822;9.402;2024-02-04T16:07:16;6.40;99.90
15959;DHT22;8078;47.822;9.402;2024-02-04T16:09:44;6.40;99.90
15959;DHT22;8078;47.822;9.402;2024-02-04T16:12:20;6.40;99.90
15959;DHT22;8078;47.822;9.402;2024-02-04T16:14:48;6.40;99.90